sensor_id;sensor_type;location;lat;lon;timestamp;P1;durP1;ratioP1;P2;durP2;ratioP2
67751;SDS011;54551;51.068;5.826;2023-02-28T00:00:28;7.70;;;6.90;;
67751;SDS011;54551;51.068;5.826;2023-02-28T00:02:54;10.63;;;6.63;;
67751;SDS011;54551;51.068;5.826;2023-02-28T00:05:21;7.93;;;6.13;;
67751;SDS011;54551;51.068;5.826;2023-02-28T00:07:48;11.87;;;6.60;;
67751;SDS011;54551;51.068;5.826;2023-02-28T00:10:16;8.20;;;6.00;;
67751;SDS011;54551;51.068;5.826;2023-02-28T00:12:49;11.83;;;7.13;;
67751;SDS011;54551;51.068;5.826;2023-02-28T00:15:16;8.27;;;6.93;;
67751;SDS011;54551;51.068;5.826;2023-02-28T00:17:43;8.90;;;6.33;;
67751;SDS011;54551;51.068;5.826;2023-02-28T00:20:10;11.83;;;7.07;;
67751;SDS011;54551;51.068;5.826;2023-02-28T00:22:41;11.43;;;6.73;;
67751;SDS011;54551;51.068;5.826;2023-02-28T00:25:09;9.73;;;6.90;;
67751;SDS011;54551;51.068;5.826;2023-02-28T00:27:36;7.53;;;5.90;;
67751;SDS011;54551;51.068;5.826;2023-02-28T00:30:05;10.07;;;6.63;;
67751;SDS011;54551;51.068;5.826;2023-02-28T00:32:36;11.23;;;6.47;;
67751;SDS011;54551;51.068;5.826;2023-02-28T00:35:02;10.33;;;6.93;;
67751;SDS011;54551;51.068;5.826;2023-02-28T00:37:29;8.40;;;6.67;;
67751;SDS011;54551;51.068;5.826;2023-02-28T00:39:55;7.13;;;6.00;;
67751;SDS011;54551;51.068;5.826;2023-02-28T00:42:21;9.17;;;6.80;;
67751;SDS011;54551;51.068;5.826;2023-02-28T00:44:48;7.17;;;6.47;;
67751;SDS011;54551;51.068;5.826;2023-02-28T00:47:13;10.27;;;7.10;;
67751;SDS011;54551;51.068;5.826;2023-02-28T00:49:39;10.33;;;6.23;;
67751;SDS011;54551;51.068;5.826;2023-02-28T00:52:08;7.70;;;5.53;;
67751;SDS011;54551;51.068;5.826;2023-02-28T00:54:34;9.83;;;6.90;;
67751;SDS011;54551;51.068;5.826;2023-02-28T00:57:00;9.10;;;6.93;;
67751;SDS011;54551;51.068;5.826;2023-02-28T00:59:26;11.13;;;6.97;;
67751;SDS011;54551;51.068;5.826;2023-02-28T01:01:52;7.93;;;6.37;;
67751;SDS011;54551;51.068;5.826;2023-02-28T01:04:18;9.17;;;6.83;;
67751;SDS011;54551;51.068;5.826;2023-02-28T01:06:44;8.77;;;6.57;;
67751;SDS011;54551;51.068;5.826;2023-02-28T01:09:10;11.07;;;6.80;;
67751;SDS011;54551;51.068;5.826;2023-02-28T01:11:37;8.57;;;5.93;;
67751;SDS011;54551;51.068;5.826;2023-02-28T01:14:05;9.30;;;6.53;;
67751;SDS011;54551;51.068;5.826;2023-02-28T01:16:31;7.10;;;6.17;;
67751;SDS011;54551;51.068;5.826;2023-02-28T01:18:57;9.30;;;6.30;;
67751;SDS011;54551;51.068;5.826;2023-02-28T01:21:23;8.97;;;7.70;;
67751;SDS011;54551;51.068;5.826;2023-02-28T01:23:49;11.07;;;7.73;;
67751;SDS011;54551;51.068;5.826;2023-02-28T01:26:16;9.40;;;7.00;;
67751;SDS011;54551;51.068;5.826;2023-02-28T01:28:47;10.93;;;7.20;;
67751;SDS011;54551;51.068;5.826;2023-02-28T01:31:14;9.20;;;6.93;;
67751;SDS011;54551;51.068;5.826;2023-02-28T01:33:41;8.20;;;6.33;;
67751;SDS011;54551;51.068;5.826;2023-02-28T01:36:09;9.80;;;7.03;;
67751;SDS011;54551;51.068;5.826;2023-02-28T01:38:37;9.87;;;6.97;;
67751;SDS011;54551;51.068;5.826;2023-02-28T01:41:03;7.90;;;6.90;;
67751;SDS011;54551;51.068;5.826;2023-02-28T01:43:31;9.93;;;7.17;;
67751;SDS011;54551;51.068;5.826;2023-02-28T01:46:16;8.80;;;7.83;;
67751;SDS011;54551;51.068;5.826;2023-02-28T01:49:25;11.13;;;7.87;;
67751;SDS011;54551;51.068;5.826;2023-02-28T01:51:44;8.97;;;7.30;;
67751;SDS011;54551;51.068;5.826;2023-02-28T01:54:16;11.17;;;7.33;;
67751;SDS011;54551;51.068;5.826;2023-02-28T01:56:49;8.83;;;6.60;;
67751;SDS011;54551;51.068;5.826;2023-02-28T01:59:21;10.70;;;8.00;;
67751;SDS011;54551;51.068;5.826;2023-02-28T02:01:52;8.77;;;7.87;;
67751;SDS011;54551;51.068;5.826;2023-02-28T02:04:19;11.17;;;7.87;;
67751;SDS011;54551;51.068;5.826;2023-02-28T02:06:48;10.87;;;7.67;;
67751;SDS011;54551;51.068;5.826;2023-02-28T02:09:15;9.73;;;7.57;;
67751;SDS011;54551;51.068;5.826;2023-02-28T02:11:41;13.60;;;8.43;;
67751;SDS011;54551;51.068;5.826;2023-02-28T02:28:22;9.60;;;8.13;;
67751;SDS011;54551;51.068;5.826;2023-02-28T02:36:59;10.27;;;8.20;;
67751;SDS011;54551;51.068;5.826;2023-02-28T02:39:48;11.33;;;8.07;;
67751;SDS011;54551;51.068;5.826;2023-02-28T02:42:27;12.73;;;8.27;;
67751;SDS011;54551;51.068;5.826;2023-02-28T02:45:04;15.40;;;9.23;;
67751;SDS011;54551;51.068;5.826;2023-02-28T02:47:34;12.33;;;8.83;;
67751;SDS011;54551;51.068;5.826;2023-02-28T02:50:04;12.00;;;7.80;;
67751;SDS011;54551;51.068;5.826;2023-02-28T02:52:34;11.83;;;9.00;;
67751;SDS011;54551;51.068;5.826;2023-02-28T02:55:06;11.17;;;8.27;;
67751;SDS011;54551;51.068;5.826;2023-02-28T02:57:38;13.23;;;9.40;;
67751;SDS011;54551;51.068;5.826;2023-02-28T03:00:10;9.93;;;8.67;;
67751;SDS011;54551;51.068;5.826;2023-02-28T03:02:39;13.40;;;9.97;;
67751;SDS011;54551;51.068;5.826;2023-02-28T03:05:08;10.37;;;9.27;;
67751;SDS011;54551;51.068;5.826;2023-02-28T03:07:50;10.73;;;8.63;;
67751;SDS011;54551;51.068;5.826;2023-02-28T03:18:27;12.77;;;9.33;;
67751;SDS011;54551;51.068;5.826;2023-02-28T03:21:23;11.30;;;8.90;;
67751;SDS011;54551;51.068;5.826;2023-02-28T03:23:58;11.73;;;8.57;;
67751;SDS011;54551;51.068;5.826;2023-02-28T03:26:34;10.30;;;8.13;;
67751;SDS011;54551;51.068;5.826;2023-02-28T03:29:06;12.83;;;8.67;;
67751;SDS011;54551;51.068;5.826;2023-02-28T03:34:41;9.40;;;8.17;;
67751;SDS011;54551;51.068;5.826;2023-02-28T03:37:15;13.43;;;9.07;;
67751;SDS011;54551;51.068;5.826;2023-02-28T03:39:46;13.43;;;9.37;;
67751;SDS011;54551;51.068;5.826;2023-02-28T03:42:18;11.90;;;8.47;;
67751;SDS011;54551;51.068;5.826;2023-02-28T03:45:00;13.90;;;8.77;;
67751;SDS011;54551;51.068;5.826;2023-02-28T03:47:33;14.10;;;8.83;;
67751;SDS011;54551;51.068;5.826;2023-02-28T03:52:42;12.40;;;8.67;;
67751;SDS011;54551;51.068;5.826;2023-02-28T03:55:13;11.27;;;8.90;;
67751;SDS011;54551;51.068;5.826;2023-02-28T04:00:40;11.20;;;9.17;;
67751;SDS011;54551;51.068;5.826;2023-02-28T04:03:11;11.47;;;9.50;;
67751;SDS011;54551;51.068;5.826;2023-02-28T04:05:45;13.37;;;9.23;;
67751;SDS011;54551;51.068;5.826;2023-02-28T04:08:19;12.13;;;8.93;;
67751;SDS011;54551;51.068;5.826;2023-02-28T04:10:48;11.83;;;9.03;;
67751;SDS011;54551;51.068;5.826;2023-02-28T04:13:22;12.97;;;8.50;;
67751;SDS011;54551;51.068;5.826;2023-02-28T04:15:49;10.50;;;8.00;;
67751;SDS011;54551;51.068;5.826;2023-02-28T04:18:15;11.53;;;8.37;;
67751;SDS011;54551;51.068;5.826;2023-02-28T04:20:41;11.87;;;8.30;;
67751;SDS011;54551;51.068;5.826;2023-02-28T04:23:07;13.93;;;9.10;;
67751;SDS011;54551;51.068;5.826;2023-02-28T04:25:33;11.83;;;8.60;;
67751;SDS011;54551;51.068;5.826;2023-02-28T04:27:58;9.70;;;8.10;;
67751;SDS011;54551;51.068;5.826;2023-02-28T04:30:24;11.13;;;8.43;;
67751;SDS011;54551;51.068;5.826;2023-02-28T04:32:50;9.10;;;8.13;;
67751;SDS011;54551;51.068;5.826;2023-02-28T04:35:16;10.10;;;8.57;;
67751;SDS011;54551;51.068;5.826;2023-02-28T04:37:42;14.13;;;9.80;;
67751;SDS011;54551;51.068;5.826;2023-02-28T04:40:08;14.47;;;10.30;;
67751;SDS011;54551;51.068;5.826;2023-02-28T04:42:34;11.57;;;9.30;;
67751;SDS011;54551;51.068;5.826;2023-02-28T04:45:02;11.67;;;9.27;;
67751;SDS011;54551;51.068;5.826;2023-02-28T04:47:28;11.27;;;9.77;;
67751;SDS011;54551;51.068;5.826;2023-02-28T04:49:54;12.57;;;9.30;;
67751;SDS011;54551;51.068;5.826;2023-02-28T04:52:20;10.53;;;9.13;;
67751;SDS011;54551;51.068;5.826;2023-02-28T04:54:46;12.07;;;9.47;;
67751;SDS011;54551;51.068;5.826;2023-02-28T04:57:12;11.37;;;8.70;;
67751;SDS011;54551;51.068;5.826;2023-02-28T04:59:38;12.63;;;9.43;;
67751;SDS011;54551;51.068;5.826;2023-02-28T05:02:04;11.63;;;8.43;;
67751;SDS011;54551;51.068;5.826;2023-02-28T05:04:35;10.93;;;8.30;;
67751;SDS011;54551;51.068;5.826;2023-02-28T05:07:01;9.77;;;8.73;;
67751;SDS011;54551;51.068;5.826;2023-02-28T05:09:28;13.50;;;9.10;;
67751;SDS011;54551;51.068;5.826;2023-02-28T05:11:54;13.07;;;8.97;;
67751;SDS011;54551;51.068;5.826;2023-02-28T05:14:20;12.03;;;9.20;;
67751;SDS011;54551;51.068;5.826;2023-02-28T05:16:46;12.47;;;8.63;;
67751;SDS011;54551;51.068;5.826;2023-02-28T05:19:12;11.60;;;9.20;;
67751;SDS011;54551;51.068;5.826;2023-02-28T05:21:40;11.97;;;8.77;;
67751;SDS011;54551;51.068;5.826;2023-02-28T05:24:13;12.00;;;9.77;;
67751;SDS011;54551;51.068;5.826;2023-02-28T05:26:40;12.53;;;8.30;;
67751;SDS011;54551;51.068;5.826;2023-02-28T05:29:07;13.20;;;8.27;;
67751;SDS011;54551;51.068;5.826;2023-02-28T05:31:34;10.97;;;7.97;;
67751;SDS011;54551;51.068;5.826;2023-02-28T05:34:00;11.07;;;7.90;;
67751;SDS011;54551;51.068;5.826;2023-02-28T05:36:26;11.77;;;8.50;;
67751;SDS011;54551;51.068;5.826;2023-02-28T05:38:51;9.83;;;7.40;;
67751;SDS011;54551;51.068;5.826;2023-02-28T05:41:18;8.97;;;7.17;;
67751;SDS011;54551;51.068;5.826;2023-02-28T05:43:45;10.23;;;7.03;;
67751;SDS011;54551;51.068;5.826;2023-02-28T05:46:11;8.80;;;7.10;;
67751;SDS011;54551;51.068;5.826;2023-02-28T05:48:38;7.77;;;6.67;;
67751;SDS011;54551;51.068;5.826;2023-02-28T05:51:05;10.57;;;6.87;;
67751;SDS011;54551;51.068;5.826;2023-02-28T05:53:32;9.73;;;7.00;;
67751;SDS011;54551;51.068;5.826;2023-02-28T05:55:58;9.97;;;6.97;;
67751;SDS011;54551;51.068;5.826;2023-02-28T05:58:24;9.10;;;6.60;;
67751;SDS011;54551;51.068;5.826;2023-02-28T06:00:54;10.93;;;7.53;;
67751;SDS011;54551;51.068;5.826;2023-02-28T06:03:20;10.13;;;6.70;;
67751;SDS011;54551;51.068;5.826;2023-02-28T06:05:46;18.47;;;7.30;;
67751;SDS011;54551;51.068;5.826;2023-02-28T06:08:12;8.80;;;6.07;;
67751;SDS011;54551;51.068;5.826;2023-02-28T06:10:38;9.57;;;6.53;;
67751;SDS011;54551;51.068;5.826;2023-02-28T06:13:04;12.33;;;7.10;;
67751;SDS011;54551;51.068;5.826;2023-02-28T06:15:30;10.00;;;6.03;;
67751;SDS011;54551;51.068;5.826;2023-02-28T06:17:57;8.97;;;6.30;;
67751;SDS011;54551;51.068;5.826;2023-02-28T06:20:23;11.60;;;7.47;;
67751;SDS011;54551;51.068;5.826;2023-02-28T06:22:51;10.03;;;7.00;;
67751;SDS011;54551;51.068;5.826;2023-02-28T06:25:19;9.10;;;6.83;;
67751;SDS011;54551;51.068;5.826;2023-02-28T06:27:45;8.73;;;6.90;;
67751;SDS011;54551;51.068;5.826;2023-02-28T06:30:11;10.83;;;7.63;;
67751;SDS011;54551;51.068;5.826;2023-02-28T06:32:37;9.47;;;6.90;;
67751;SDS011;54551;51.068;5.826;2023-02-28T06:35:04;12.17;;;7.20;;
67751;SDS011;54551;51.068;5.826;2023-02-28T06:37:31;9.50;;;7.23;;
67751;SDS011;54551;51.068;5.826;2023-02-28T06:39:57;9.63;;;7.10;;
67751;SDS011;54551;51.068;5.826;2023-02-28T06:42:24;8.83;;;7.23;;
67751;SDS011;54551;51.068;5.826;2023-02-28T06:44:57;9.17;;;7.23;;
67751;SDS011;54551;51.068;5.826;2023-02-28T06:47:23;7.60;;;6.40;;
67751;SDS011;54551;51.068;5.826;2023-02-28T06:49:50;10.57;;;6.70;;
67751;SDS011;54551;51.068;5.826;2023-02-28T06:52:16;12.50;;;7.33;;
67751;SDS011;54551;51.068;5.826;2023-02-28T06:54:42;9.73;;;7.13;;
67751;SDS011;54551;51.068;5.826;2023-02-28T06:57:08;12.00;;;6.80;;
67751;SDS011;54551;51.068;5.826;2023-02-28T06:59:34;11.13;;;7.40;;
67751;SDS011;54551;51.068;5.826;2023-02-28T07:02:00;9.13;;;6.97;;
67751;SDS011;54551;51.068;5.826;2023-02-28T07:04:27;9.67;;;6.63;;
67751;SDS011;54551;51.068;5.826;2023-02-28T07:06:54;10.17;;;7.33;;
67751;SDS011;54551;51.068;5.826;2023-02-28T07:09:22;8.33;;;6.40;;
67751;SDS011;54551;51.068;5.826;2023-02-28T07:11:48;13.93;;;6.87;;
67751;SDS011;54551;51.068;5.826;2023-02-28T07:14:14;8.30;;;5.90;;
67751;SDS011;54551;51.068;5.826;2023-02-28T07:16:40;11.20;;;6.13;;
67751;SDS011;54551;51.068;5.826;2023-02-28T07:19:06;9.37;;;6.37;;
67751;SDS011;54551;51.068;5.826;2023-02-28T07:21:32;7.13;;;5.80;;
67751;SDS011;54551;51.068;5.826;2023-02-28T07:23:58;9.70;;;7.00;;
67751;SDS011;54551;51.068;5.826;2023-02-28T07:26:24;10.57;;;6.73;;
67751;SDS011;54551;51.068;5.826;2023-02-28T07:28:50;12.37;;;7.17;;
67751;SDS011;54551;51.068;5.826;2023-02-28T07:31:16;9.70;;;6.17;;
67751;SDS011;54551;51.068;5.826;2023-02-28T07:33:42;10.87;;;6.50;;
67751;SDS011;54551;51.068;5.826;2023-02-28T07:36:10;11.57;;;6.60;;
67751;SDS011;54551;51.068;5.826;2023-02-28T07:38:44;8.27;;;5.57;;
67751;SDS011;54551;51.068;5.826;2023-02-28T07:41:13;9.57;;;5.80;;
67751;SDS011;54551;51.068;5.826;2023-02-28T07:43:40;7.43;;;5.20;;
67751;SDS011;54551;51.068;5.826;2023-02-28T07:46:07;9.43;;;5.50;;
67751;SDS011;54551;51.068;5.826;2023-02-28T07:48:35;7.63;;;5.03;;
67751;SDS011;54551;51.068;5.826;2023-02-28T07:51:01;7.47;;;5.37;;
67751;SDS011;54551;51.068;5.826;2023-02-28T07:53:28;7.10;;;4.60;;
67751;SDS011;54551;51.068;5.826;2023-02-28T07:55:55;8.13;;;5.53;;
67751;SDS011;54551;51.068;5.826;2023-02-28T07:58:22;8.30;;;4.70;;
67751;SDS011;54551;51.068;5.826;2023-02-28T08:00:48;5.97;;;4.27;;
67751;SDS011;54551;51.068;5.826;2023-02-28T08:03:14;8.03;;;5.17;;
67751;SDS011;54551;51.068;5.826;2023-02-28T08:05:40;6.60;;;5.20;;
67751;SDS011;54551;51.068;5.826;2023-02-28T08:08:07;7.40;;;5.47;;
67751;SDS011;54551;51.068;5.826;2023-02-28T08:10:33;6.20;;;4.87;;
67751;SDS011;54551;51.068;5.826;2023-02-28T08:12:59;9.10;;;5.90;;
67751;SDS011;54551;51.068;5.826;2023-02-28T08:15:26;11.07;;;5.70;;
67751;SDS011;54551;51.068;5.826;2023-02-28T08:17:52;7.43;;;4.80;;
67751;SDS011;54551;51.068;5.826;2023-02-28T08:20:18;5.97;;;4.70;;
67751;SDS011;54551;51.068;5.826;2023-02-28T08:22:44;7.23;;;4.60;;
67751;SDS011;54551;51.068;5.826;2023-02-28T08:25:10;5.07;;;4.50;;
67751;SDS011;54551;51.068;5.826;2023-02-28T08:27:36;5.90;;;4.37;;
67751;SDS011;54551;51.068;5.826;2023-02-28T08:30:02;6.47;;;4.90;;
67751;SDS011;54551;51.068;5.826;2023-02-28T08:32:29;6.60;;;4.40;;
67751;SDS011;54551;51.068;5.826;2023-02-28T08:34:54;6.10;;;4.43;;
67751;SDS011;54551;51.068;5.826;2023-02-28T08:37:20;8.87;;;3.70;;
67751;SDS011;54551;51.068;5.826;2023-02-28T08:39:46;9.23;;;4.13;;
67751;SDS011;54551;51.068;5.826;2023-02-28T08:42:12;7.10;;;4.47;;
67751;SDS011;54551;51.068;5.826;2023-02-28T08:44:38;5.20;;;4.10;;
67751;SDS011;54551;51.068;5.826;2023-02-28T08:47:05;6.70;;;3.93;;
67751;SDS011;54551;51.068;5.826;2023-02-28T08:49:31;5.47;;;4.17;;
67751;SDS011;54551;51.068;5.826;2023-02-28T08:51:57;6.50;;;3.70;;
67751;SDS011;54551;51.068;5.826;2023-02-28T08:54:23;6.33;;;4.63;;
67751;SDS011;54551;51.068;5.826;2023-02-28T08:56:50;5.40;;;4.00;;
67751;SDS011;54551;51.068;5.826;2023-02-28T08:59:15;5.63;;;3.90;;
67751;SDS011;54551;51.068;5.826;2023-02-28T09:01:41;7.23;;;4.47;;
67751;SDS011;54551;51.068;5.826;2023-02-28T09:04:09;4.60;;;3.60;;
67751;SDS011;54551;51.068;5.826;2023-02-28T09:06:37;5.47;;;3.90;;
67751;SDS011;54551;51.068;5.826;2023-02-28T09:09:03;4.17;;;3.23;;
67751;SDS011;54551;51.068;5.826;2023-02-28T09:11:31;4.73;;;4.13;;
67751;SDS011;54551;51.068;5.826;2023-02-28T09:13:58;3.57;;;2.80;;
67751;SDS011;54551;51.068;5.826;2023-02-28T09:16:26;3.33;;;2.97;;
67751;SDS011;54551;51.068;5.826;2023-02-28T09:18:52;4.87;;;2.87;;
67751;SDS011;54551;51.068;5.826;2023-02-28T09:21:18;3.07;;;2.73;;
67751;SDS011;54551;51.068;5.826;2023-02-28T09:23:46;2.50;;;2.07;;
67751;SDS011;54551;51.068;5.826;2023-02-28T09:26:18;2.90;;;2.57;;
67751;SDS011;54551;51.068;5.826;2023-02-28T09:28:52;2.30;;;1.90;;
67751;SDS011;54551;51.068;5.826;2023-02-28T09:31:20;2.37;;;2.17;;
67751;SDS011;54551;51.068;5.826;2023-02-28T09:33:49;3.60;;;2.30;;
67751;SDS011;54551;51.068;5.826;2023-02-28T09:36:16;1.77;;;1.67;;
67751;SDS011;54551;51.068;5.826;2023-02-28T09:38:43;3.20;;;2.53;;
67751;SDS011;54551;51.068;5.826;2023-02-28T09:41:11;2.70;;;2.20;;
67751;SDS011;54551;51.068;5.826;2023-02-28T09:43:44;3.03;;;2.33;;
67751;SDS011;54551;51.068;5.826;2023-02-28T09:46:24;2.07;;;1.80;;
67751;SDS011;54551;51.068;5.826;2023-02-28T09:49:20;3.17;;;2.10;;
67751;SDS011;54551;51.068;5.826;2023-02-28T09:51:58;2.20;;;2.00;;
67751;SDS011;54551;51.068;5.826;2023-02-28T09:54:28;2.03;;;1.90;;
67751;SDS011;54551;51.068;5.826;2023-02-28T09:56:57;2.70;;;1.93;;
67751;SDS011;54551;51.068;5.826;2023-02-28T10:05:38;1.87;;;1.47;;
67751;SDS011;54551;51.068;5.826;2023-02-28T10:11:09;6.57;;;1.93;;
67751;SDS011;54551;51.068;5.826;2023-02-28T10:13:42;1.97;;;1.50;;
67751;SDS011;54551;51.068;5.826;2023-02-28T10:16:26;8.30;;;2.27;;
67751;SDS011;54551;51.068;5.826;2023-02-28T10:19:08;2.60;;;1.83;;
67751;SDS011;54551;51.068;5.826;2023-02-28T10:21:52;1.93;;;1.70;;
67751;SDS011;54551;51.068;5.826;2023-02-28T10:24:27;1.80;;;1.43;;
67751;SDS011;54551;51.068;5.826;2023-02-28T10:27:05;2.37;;;1.80;;
67751;SDS011;54551;51.068;5.826;2023-02-28T10:29:40;2.30;;;1.83;;
67751;SDS011;54551;51.068;5.826;2023-02-28T10:32:09;1.80;;;1.50;;
67751;SDS011;54551;51.068;5.826;2023-02-28T10:34:39;3.17;;;1.53;;
67751;SDS011;54551;51.068;5.826;2023-02-28T10:37:05;1.90;;;1.67;;
67751;SDS011;54551;51.068;5.826;2023-02-28T10:42:18;1.93;;;1.80;;
67751;SDS011;54551;51.068;5.826;2023-02-28T10:44:44;3.97;;;1.43;;
67751;SDS011;54551;51.068;5.826;2023-02-28T10:47:16;2.73;;;1.70;;
67751;SDS011;54551;51.068;5.826;2023-02-28T10:49:50;2.00;;;1.63;;
67751;SDS011;54551;51.068;5.826;2023-02-28T10:52:34;1.60;;;1.40;;
67751;SDS011;54551;51.068;5.826;2023-02-28T10:55:23;1.83;;;1.73;;
67751;SDS011;54551;51.068;5.826;2023-02-28T10:57:51;2.13;;;1.60;;
67751;SDS011;54551;51.068;5.826;2023-02-28T11:00:22;2.10;;;1.30;;
67751;SDS011;54551;51.068;5.826;2023-02-28T11:02:50;7.90;;;2.20;;
67751;SDS011;54551;51.068;5.826;2023-02-28T11:05:33;3.33;;;1.60;;
67751;SDS011;54551;51.068;5.826;2023-02-28T11:10:30;1.43;;;1.33;;
67751;SDS011;54551;51.068;5.826;2023-02-28T11:13:00;2.37;;;1.43;;
67751;SDS011;54551;51.068;5.826;2023-02-28T11:15:27;1.67;;;1.57;;
67751;SDS011;54551;51.068;5.826;2023-02-28T11:20:32;2.40;;;1.90;;
67751;SDS011;54551;51.068;5.826;2023-02-28T11:23:00;3.43;;;1.70;;
67751;SDS011;54551;51.068;5.826;2023-02-28T11:25:32;3.07;;;1.50;;
67751;SDS011;54551;51.068;5.826;2023-02-28T11:28:03;1.70;;;1.60;;
67751;SDS011;54551;51.068;5.826;2023-02-28T11:33:21;3.93;;;1.70;;
67751;SDS011;54551;51.068;5.826;2023-02-28T11:38:56;3.83;;;2.23;;
67751;SDS011;54551;51.068;5.826;2023-02-28T11:46:58;2.97;;;2.10;;
67751;SDS011;54551;51.068;5.826;2023-02-28T11:55:35;3.80;;;2.27;;
67751;SDS011;54551;51.068;5.826;2023-02-28T12:05:39;2.80;;;2.20;;
67751;SDS011;54551;51.068;5.826;2023-02-28T12:11:00;2.63;;;1.93;;
67751;SDS011;54551;51.068;5.826;2023-02-28T12:16:33;2.53;;;2.00;;
67751;SDS011;54551;51.068;5.826;2023-02-28T12:24:28;2.67;;;2.07;;
67751;SDS011;54551;51.068;5.826;2023-02-28T12:27:14;3.07;;;2.10;;
67751;SDS011;54551;51.068;5.826;2023-02-28T12:29:52;2.17;;;1.90;;
67751;SDS011;54551;51.068;5.826;2023-02-28T12:35:06;4.20;;;1.87;;
67751;SDS011;54551;51.068;5.826;2023-02-28T12:37:59;4.60;;;2.67;;
67751;SDS011;54551;51.068;5.826;2023-02-28T12:43:09;3.00;;;2.10;;
67751;SDS011;54551;51.068;5.826;2023-02-28T12:45:57;2.40;;;2.20;;
67751;SDS011;54551;51.068;5.826;2023-02-28T12:48:31;3.13;;;2.60;;
67751;SDS011;54551;51.068;5.826;2023-02-28T12:50:59;5.00;;;2.40;;
67751;SDS011;54551;51.068;5.826;2023-02-28T12:56:09;2.60;;;2.40;;
67751;SDS011;54551;51.068;5.826;2023-02-28T12:58:47;3.57;;;2.60;;
67751;SDS011;54551;51.068;5.826;2023-02-28T13:01:28;3.13;;;2.77;;
67751;SDS011;54551;51.068;5.826;2023-02-28T13:07:12;4.47;;;2.97;;
67751;SDS011;54551;51.068;5.826;2023-02-28T13:09:54;3.10;;;2.80;;
67751;SDS011;54551;51.068;5.826;2023-02-28T13:12:24;4.10;;;2.37;;
67751;SDS011;54551;51.068;5.826;2023-02-28T13:15:01;4.07;;;3.20;;
67751;SDS011;54551;51.068;5.826;2023-02-28T13:17:36;3.07;;;1.97;;
67751;SDS011;54551;51.068;5.826;2023-02-28T13:20:04;3.63;;;2.70;;
67751;SDS011;54551;51.068;5.826;2023-02-28T13:22:45;5.00;;;2.63;;
67751;SDS011;54551;51.068;5.826;2023-02-28T13:28:11;3.50;;;2.50;;
67751;SDS011;54551;51.068;5.826;2023-02-28T13:33:31;2.83;;;2.40;;
67751;SDS011;54551;51.068;5.826;2023-02-28T13:36:08;3.70;;;2.50;;
67751;SDS011;54551;51.068;5.826;2023-02-28T13:38:42;3.23;;;2.50;;
67751;SDS011;54551;51.068;5.826;2023-02-28T13:51:53;3.00;;;1.90;;
67751;SDS011;54551;51.068;5.826;2023-02-28T14:05:33;3.40;;;2.10;;
67751;SDS011;54551;51.068;5.826;2023-02-28T14:08:04;3.63;;;2.47;;
67751;SDS011;54551;51.068;5.826;2023-02-28T14:10:49;2.97;;;2.40;;
67751;SDS011;54551;51.068;5.826;2023-02-28T14:16:05;2.97;;;2.00;;
67751;SDS011;54551;51.068;5.826;2023-02-28T14:18:35;2.70;;;2.40;;
67751;SDS011;54551;51.068;5.826;2023-02-28T14:21:09;4.40;;;2.23;;
67751;SDS011;54551;51.068;5.826;2023-02-28T14:32:06;2.50;;;2.30;;
67751;SDS011;54551;51.068;5.826;2023-02-28T14:37:28;3.90;;;2.43;;
67751;SDS011;54551;51.068;5.826;2023-02-28T14:39:58;3.27;;;2.60;;
67751;SDS011;54551;51.068;5.826;2023-02-28T14:42:30;2.30;;;1.97;;
67751;SDS011;54551;51.068;5.826;2023-02-28T14:44:58;4.67;;;3.00;;
67751;SDS011;54551;51.068;5.826;2023-02-28T14:47:27;2.73;;;2.50;;
67751;SDS011;54551;51.068;5.826;2023-02-28T14:49:55;2.90;;;2.53;;
67751;SDS011;54551;51.068;5.826;2023-02-28T14:52:23;7.73;;;3.07;;
67751;SDS011;54551;51.068;5.826;2023-02-28T14:55:03;2.83;;;2.40;;
67751;SDS011;54551;51.068;5.826;2023-02-28T14:57:41;3.27;;;2.97;;
67751;SDS011;54551;51.068;5.826;2023-02-28T15:02:50;3.30;;;2.70;;
67751;SDS011;54551;51.068;5.826;2023-02-28T15:05:26;3.60;;;2.73;;
67751;SDS011;54551;51.068;5.826;2023-02-28T15:08:09;2.67;;;2.47;;
67751;SDS011;54551;51.068;5.826;2023-02-28T15:10:50;3.00;;;2.70;;
67751;SDS011;54551;51.068;5.826;2023-02-28T15:13:18;3.33;;;2.63;;
67751;SDS011;54551;51.068;5.826;2023-02-28T15:15:55;3.70;;;2.67;;
67751;SDS011;54551;51.068;5.826;2023-02-28T15:21:22;2.60;;;2.40;;
67751;SDS011;54551;51.068;5.826;2023-02-28T15:26:22;3.33;;;2.80;;
67751;SDS011;54551;51.068;5.826;2023-02-28T15:28:55;4.03;;;2.80;;
67751;SDS011;54551;51.068;5.826;2023-02-28T15:31:31;3.37;;;2.90;;
67751;SDS011;54551;51.068;5.826;2023-02-28T15:34:04;5.43;;;3.00;;
67751;SDS011;54551;51.068;5.826;2023-02-28T15:36:32;4.93;;;2.90;;
67751;SDS011;54551;51.068;5.826;2023-02-28T15:39:03;2.80;;;2.60;;
67751;SDS011;54551;51.068;5.826;2023-02-28T15:41:43;3.50;;;3.20;;
67751;SDS011;54551;51.068;5.826;2023-02-28T15:44:13;3.47;;;2.67;;
67751;SDS011;54551;51.068;5.826;2023-02-28T15:49:23;3.70;;;3.33;;
67751;SDS011;54551;51.068;5.826;2023-02-28T15:51:50;3.53;;;2.70;;
67751;SDS011;54551;51.068;5.826;2023-02-28T15:54:24;5.80;;;3.00;;
67751;SDS011;54551;51.068;5.826;2023-02-28T15:57:00;3.67;;;3.37;;
67751;SDS011;54551;51.068;5.826;2023-02-28T15:59:31;5.60;;;2.77;;
67751;SDS011;54551;51.068;5.826;2023-02-28T16:04:36;2.53;;;2.33;;
67751;SDS011;54551;51.068;5.826;2023-02-28T16:07:03;4.47;;;2.73;;
67751;SDS011;54551;51.068;5.826;2023-02-28T16:09:30;3.80;;;2.87;;
67751;SDS011;54551;51.068;5.826;2023-02-28T16:12:00;3.30;;;2.50;;
67751;SDS011;54551;51.068;5.826;2023-02-28T16:14:28;3.00;;;2.80;;
67751;SDS011;54551;51.068;5.826;2023-02-28T16:16:57;4.23;;;3.00;;
67751;SDS011;54551;51.068;5.826;2023-02-28T16:19:28;5.40;;;2.90;;
67751;SDS011;54551;51.068;5.826;2023-02-28T16:21:54;4.87;;;2.90;;
67751;SDS011;54551;51.068;5.826;2023-02-28T16:24:20;2.80;;;2.40;;
67751;SDS011;54551;51.068;5.826;2023-02-28T16:26:46;3.73;;;2.83;;
67751;SDS011;54551;51.068;5.826;2023-02-28T16:29:15;4.13;;;2.43;;
67751;SDS011;54551;51.068;5.826;2023-02-28T16:31:49;4.27;;;3.10;;
67751;SDS011;54551;51.068;5.826;2023-02-28T16:34:15;5.63;;;3.90;;
67751;SDS011;54551;51.068;5.826;2023-02-28T16:36:41;4.53;;;3.13;;
67751;SDS011;54551;51.068;5.826;2023-02-28T16:39:07;3.83;;;3.17;;
67751;SDS011;54551;51.068;5.826;2023-02-28T16:41:33;4.93;;;3.40;;
67751;SDS011;54551;51.068;5.826;2023-02-28T16:43:59;3.37;;;2.97;;
67751;SDS011;54551;51.068;5.826;2023-02-28T16:46:44;3.90;;;3.00;;
67751;SDS011;54551;51.068;5.826;2023-02-28T16:49:13;4.10;;;3.43;;
67751;SDS011;54551;51.068;5.826;2023-02-28T16:51:39;4.57;;;3.20;;
67751;SDS011;54551;51.068;5.826;2023-02-28T16:54:05;5.10;;;3.40;;
67751;SDS011;54551;51.068;5.826;2023-02-28T16:56:31;4.17;;;3.13;;
67751;SDS011;54551;51.068;5.826;2023-02-28T16:58:59;4.70;;;3.37;;
67751;SDS011;54551;51.068;5.826;2023-02-28T17:01:26;4.87;;;3.57;;
67751;SDS011;54551;51.068;5.826;2023-02-28T17:03:53;5.00;;;2.93;;
67751;SDS011;54551;51.068;5.826;2023-02-28T17:06:24;4.00;;;3.27;;
67751;SDS011;54551;51.068;5.826;2023-02-28T17:08:53;6.63;;;3.67;;
67751;SDS011;54551;51.068;5.826;2023-02-28T17:11:19;4.47;;;3.57;;
67751;SDS011;54551;51.068;5.826;2023-02-28T17:13:46;4.37;;;3.53;;
67751;SDS011;54551;51.068;5.826;2023-02-28T17:16:15;5.37;;;4.37;;
67751;SDS011;54551;51.068;5.826;2023-02-28T17:19:00;4.83;;;3.90;;
67751;SDS011;54551;51.068;5.826;2023-02-28T17:21:28;4.70;;;4.20;;
67751;SDS011;54551;51.068;5.826;2023-02-28T17:23:55;5.77;;;3.67;;
67751;SDS011;54551;51.068;5.826;2023-02-28T17:26:21;4.33;;;3.53;;
67751;SDS011;54551;51.068;5.826;2023-02-28T17:28:50;4.77;;;3.80;;
67751;SDS011;54551;51.068;5.826;2023-02-28T17:31:17;4.37;;;3.73;;
67751;SDS011;54551;51.068;5.826;2023-02-28T17:33:43;5.10;;;3.80;;